sensor_id;sensor_type;location;lat;lon;timestamp;pressure;altitude;pressure_sealevel;temperature;humidity
58739;BME280;44512;53.046;18.604;2023-03-04T00:04:30;101345.27;;;2.79;66.97
58739;BME280;44512;53.046;18.604;2023-03-04T00:14:59;101277.99;;;2.84;66.90
58739;BME280;44512;53.046;18.604;2023-03-04T00:25:27;101241.55;;;2.83;66.75
58739;BME280;44512;53.046;18.604;2023-03-04T00:35:56;101194.41;;;2.82;66.49
58739;BME280;44512;53.046;18.604;2023-03-04T00:46:24;101167.95;;;2.79;66.43
58739;BME280;44512;53.046;18.604;2023-03-04T00:56:53;101191.05;;;2.80;66.57
58739;BME280;44512;53.046;18.604;2023-03-04T01:07:21;101215.54;;;2.85;66.49
58739;BME280;44512;53.046;18.604;2023-03-04T01:17:49;101198.10;;;2.91;66.38
58739;BME280;44512;53.046;18.604;2023-03-04T01:28:18;101186.15;;;2.95;66.10
58739;BME280;44512;53.046;18.604;2023-03-04T01:38:46;101175.99;;;2.98;65.91
58739;BME280;44512;53.046;18.604;2023-03-04T01:49:15;101167.70;;;3.01;65.82
58739;BME280;44512;53.046;18.604;2023-03-04T01:59:44;101160.21;;;3.05;65.70
58739;BME280;44512;53.046;18.604;2023-03-04T02:10:12;101149.93;;;3.10;65.69
58739;BME280;44512;53.046;18.604;2023-03-04T02:20:50;101136.15;;;3.14;65.76
58739;BME280;44512;53.046;18.604;2023-03-04T02:31:36;101139.24;;;3.20;65.81
58739;BME280;44512;53.046;18.604;2023-03-04T02:41:37;101120.09;;;3.24;65.84
58739;BME280;44512;53.046;18.604;2023-03-04T02:52:08;101106.28;;;3.29;65.85
58739;BME280;44512;53.046;18.604;2023-03-04T03:02:34;101104.17;;;3.32;65.89
58739;BME280;44512;53.046;18.604;2023-03-04T03:13:02;101094.72;;;3.38;65.90
58739;BME280;44512;53.046;18.604;2023-03-04T03:23:31;101081.75;;;3.43;65.86
58739;BME280;44512;53.046;18.604;2023-03-04T03:33:59;101068.78;;;3.48;65.74
58739;BME280;44512;53.046;18.604;2023-03-04T03:44:28;101059.59;;;3.51;65.62
58739;BME280;44512;53.046;18.604;2023-03-04T03:54:56;101069.87;;;3.55;65.45
58739;BME280;44512;53.046;18.604;2023-03-04T04:05:25;101074.23;;;3.56;65.41
58739;BME280;44512;53.046;18.604;2023-03-04T04:15:53;101079.30;;;3.59;65.47
58739;BME280;44512;53.046;18.604;2023-03-04T04:26:21;101054.09;;;3.62;65.40
58739;BME280;44512;53.046;18.604;2023-03-04T04:36:50;101044.06;;;3.64;65.40
58739;BME280;44512;53.046;18.604;2023-03-04T04:47:18;101040.55;;;3.63;65.38
58739;BME280;44512;53.046;18.604;2023-03-04T04:57:47;101026.33;;;3.63;65.40
58739;BME280;44512;53.046;18.604;2023-03-04T05:08:15;101018.12;;;3.64;65.43
58739;BME280;44512;53.046;18.604;2023-03-04T05:18:44;101022.36;;;3.67;65.37
58739;BME280;44512;53.046;18.604;2023-03-04T05:29:12;101011.34;;;3.70;65.33
58739;BME280;44512;53.046;18.604;2023-03-04T05:39:40;101018.25;;;3.73;65.26
58739;BME280;44512;53.046;18.604;2023-03-04T05:50:10;101023.28;;;3.76;65.18
58739;BME280;44512;53.046;18.604;2023-03-04T06:00:37;101028.36;;;3.79;65.23
58739;BME280;44512;53.046;18.604;2023-03-04T06:11:06;101027.91;;;3.83;65.31
58739;BME280;44512;53.046;18.604;2023-03-04T06:21:34;101016.05;;;3.86;65.38
58739;BME280;44512;53.046;18.604;2023-03-04T06:32:02;101008.01;;;3.86;65.47
58739;BME280;44512;53.046;18.604;2023-03-04T06:42:31;101000.37;;;3.91;65.82
58739;BME280;44512;53.046;18.604;2023-03-04T06:52:59;101014.16;;;3.96;66.13
58739;BME280;44512;53.046;18.604;2023-03-04T07:03:28;101010.48;;;3.97;66.42
58739;BME280;44512;53.046;18.604;2023-03-04T07:13:56;101004.82;;;4.00;66.79
58739;BME280;44512;53.046;18.604;2023-03-04T07:24:24;101012.71;;;4.02;67.29
58739;BME280;44512;53.046;18.604;2023-03-04T07:34:53;100991.83;;;4.05;67.34
58739;BME280;44512;53.046;18.604;2023-03-04T07:45:22;100991.53;;;4.08;67.38
58739;BME280;44512;53.046;18.604;2023-03-04T07:55:50;100977.43;;;4.06;67.90
58739;BME280;44512;53.046;18.604;2023-03-04T08:06:20;100979.11;;;4.07;68.26
58739;BME280;44512;53.046;18.604;2023-03-04T08:16:46;100980.49;;;4.11;68.61
58739;BME280;44512;53.046;18.604;2023-03-04T08:27:15;100975.81;;;4.13;68.91
58739;BME280;44512;53.046;18.604;2023-03-04T08:37:43;100955.09;;;4.15;69.47
58739;BME280;44512;53.046;18.604;2023-03-04T08:48:12;100951.41;;;4.16;70.12
58739;BME280;44512;53.046;18.604;2023-03-04T08:58:40;100951.13;;;4.20;70.96
58739;BME280;44512;53.046;18.604;2023-03-04T09:09:09;100960.51;;;4.24;71.54
58739;BME280;44512;53.046;18.604;2023-03-04T09:19:37;100972.77;;;4.26;72.01
58739;BME280;44512;53.046;18.604;2023-03-04T09:35:11;100974.28;;;4.29;72.72
58739;BME280;44512;53.046;18.604;2023-03-04T09:45:47;100977.52;;;4.32;72.90
58739;BME280;44512;53.046;18.604;2023-03-04T09:56:09;100965.49;;;4.36;72.83
58739;BME280;44512;53.046;18.604;2023-03-04T10:06:37;100961.35;;;4.42;72.56
58739;BME280;44512;53.046;18.604;2023-03-04T10:17:18;100960.42;;;4.51;72.03
58739;BME280;44512;53.046;18.604;2023-03-04T10:27:33;100947.07;;;4.59;71.66
58739;BME280;44512;53.046;18.604;2023-03-04T10:38:02;100939.77;;;4.69;71.16
58739;BME280;44512;53.046;18.604;2023-03-04T10:48:31;100939.84;;;4.78;70.37
58739;BME280;44512;53.046;18.604;2023-03-04T11:09:29;100935.61;;;5.01;69.03
58739;BME280;44512;53.046;18.604;2023-03-04T11:30:31;100980.05;;;5.30;63.14
58739;BME280;44512;53.046;18.604;2023-03-04T11:40:53;100973.56;;;5.40;56.35
58739;BME280;44512;53.046;18.604;2023-03-04T11:51:27;100980.82;;;5.48;50.31
58739;BME280;44512;53.046;18.604;2023-03-04T12:12:32;100975.83;;;5.61;47.26
58739;BME280;44512;53.046;18.604;2023-03-04T12:22:49;100980.55;;;5.67;45.35
58739;BME280;44512;53.046;18.604;2023-03-04T13:04:52;100995.77;;;5.93;40.85
58739;BME280;44512;53.046;18.604;2023-03-04T13:25:38;100985.73;;;6.03;38.29
58739;BME280;44512;53.046;18.604;2023-03-04T13:46:41;100993.98;;;6.18;36.19
58739;BME280;44512;53.046;18.604;2023-03-04T14:07:33;101035.67;;;6.30;33.95
58739;BME280;44512;53.046;18.604;2023-03-04T14:18:01;101028.61;;;6.29;32.81
58739;BME280;44512;53.046;18.604;2023-03-04T14:28:24;101013.99;;;6.23;33.44
58739;BME280;44512;53.046;18.604;2023-03-04T14:38:54;101021.71;;;6.18;34.26
58739;BME280;44512;53.046;18.604;2023-03-04T14:49:21;101037.13;;;6.08;34.63
58739;BME280;44512;53.046;18.604;2023-03-04T14:59:50;101027.88;;;5.94;34.27
58739;BME280;44512;53.046;18.604;2023-03-04T15:10:21;101052.16;;;5.85;34.42
58739;BME280;44512;53.046;18.604;2023-03-04T15:20:56;101057.58;;;5.93;34.52
58739;BME280;44512;53.046;18.604;2023-03-04T15:31:20;101075.11;;;6.05;33.46
58739;BME280;44512;53.046;18.604;2023-03-04T15:41:43;101095.29;;;6.17;34.22
58739;BME280;44512;53.046;18.604;2023-03-04T15:52:17;101095.16;;;6.27;34.02
58739;BME280;44512;53.046;18.604;2023-03-04T16:02:39;101122.70;;;6.29;33.78
58739;BME280;44512;53.046;18.604;2023-03-04T16:13:21;101136.49;;;6.26;33.23
58739;BME280;44512;53.046;18.604;2023-03-04T16:23:42;101144.83;;;6.15;33.41
58739;BME280;44512;53.046;18.604;2023-03-04T16:34:04;101171.12;;;5.95;33.29
58739;BME280;44512;53.046;18.604;2023-03-04T16:44:33;101195.47;;;5.75;33.40
58739;BME280;44512;53.046;18.604;2023-03-04T16:55:01;101206.77;;;5.61;33.95
58739;BME280;44512;53.046;18.604;2023-03-04T17:05:31;101235.56;;;5.51;33.67
58739;BME280;44512;53.046;18.604;2023-03-04T17:16:02;101243.86;;;5.40;33.72
58739;BME280;44512;53.046;18.604;2023-03-04T17:26:26;101255.29;;;5.24;32.70
58739;BME280;44512;53.046;18.604;2023-03-04T17:36:55;101263.79;;;5.02;31.66
58739;BME280;44512;53.046;18.604;2023-03-04T17:47:23;101288.73;;;4.84;32.01
58739;BME280;44512;53.046;18.604;2023-03-04T17:57:51;101284.25;;;4.75;32.51
58739;BME280;44512;53.046;18.604;2023-03-04T18:08:20;101285.97;;;4.76;32.78
58739;BME280;44512;53.046;18.604;2023-03-04T18:18:49;101291.77;;;4.72;32.94
58739;BME280;44512;53.046;18.604;2023-03-04T18:29:17;101293.09;;;4.58;33.41
58739;BME280;44512;53.046;18.604;2023-03-04T18:39:45;101296.80;;;4.47;34.08
58739;BME280;44512;53.046;18.604;2023-03-04T18:50:14;101306.27;;;4.41;34.44
58739;BME280;44512;53.046;18.604;2023-03-04T19:00:42;101314.06;;;4.35;34.82
58739;BME280;44512;53.046;18.604;2023-03-04T19:11:10;101319.14;;;4.28;34.87
58739;BME280;44512;53.046;18.604;2023-03-04T19:21:39;101323.55;;;4.20;34.84
58739;BME280;44512;53.046;18.604;2023-03-04T19:32:07;101320.05;;;4.09;34.84
58739;BME280;44512;53.046;18.604;2023-03-04T19:42:35;101322.89;;;3.98;35.10
58739;BME280;44512;53.046;18.604;2023-03-04T19:53:04;101324.58;;;3.80;35.41
58739;BME280;44512;53.046;18.604;2023-03-04T20:03:32;101324.87;;;3.57;35.81
58739;BME280;44512;53.046;18.604;2023-03-04T20:14:02;101325.28;;;3.43;36.10
58739;BME280;44512;53.046;18.604;2023-03-04T20:24:29;101327.36;;;3.30;36.29
58739;BME280;44512;53.046;18.604;2023-03-04T20:34:58;101318.48;;;3.20;36.39
58739;BME280;44512;53.046;18.604;2023-03-04T20:45:26;101306.77;;;3.01;36.36
58739;BME280;44512;53.046;18.604;2023-03-04T20:55:54;101312.49;;;2.87;36.42
58739;BME280;44512;53.046;18.604;2023-03-04T21:06:23;101312.02;;;2.72;36.58
58739;BME280;44512;53.046;18.604;2023-03-04T21:17:00;101313.66;;;2.64;36.78
58739;BME280;44512;53.046;18.604;2023-03-04T21:27:20;101305.23;;;2.58;36.98
58739;BME280;44512;53.046;18.604;2023-03-04T21:37:48;101298.45;;;2.54;37.31
58739;BME280;44512;53.046;18.604;2023-03-04T21:48:17;101286.03;;;2.44;37.58
58739;BME280;44512;53.046;18.604;2023-03-04T21:58:45;101273.33;;;2.36;37.91
58739;BME280;44512;53.046;18.604;2023-03-04T22:09:13;101261.75;;;2.26;38.31
58739;BME280;44512;53.046;18.604;2023-03-04T22:19:42;101258.93;;;2.18;38.44
58739;BME280;44512;53.046;18.604;2023-03-04T22:30:11;101255.16;;;1.99;38.43
58739;BME280;44512;53.046;18.604;2023-03-04T22:40:39;101253.41;;;1.89;38.50
58739;BME280;44512;53.046;18.604;2023-03-04T22:51:08;101250.36;;;1.72;38.78
58739;BME280;44512;53.046;18.604;2023-03-04T23:01:36;101251.80;;;1.55;39.21
58739;BME280;44512;53.046;18.604;2023-03-04T23:12:05;101236.80;;;1.43;39.52
58739;BME280;44512;53.046;18.604;2023-03-04T23:22:33;101239.52;;;1.32;39.84
58739;BME280;44512;53.046;18.604;2023-03-04T23:33:01;101223.58;;;1.21;40.11
58739;BME280;44512;53.046;18.604;2023-03-04T23:43:29;101207.63;;;1.10;40.45
58739;BME280;44512;53.046;18.604;2023-03-04T23:53:58;101205.07;;;1.08;40.67
